Time;durP1;ratioP1;P1;durP2;ratioP2;P2;SDS_P1;SDS_P2;PMS_P1;PMS_P2;Temp;Humidity;BMP_temperature;BMP_pressure;BME280_temperature;BME280_humidity;BME280_pressure;Samples;Min_cycle;Max_cycle;Signal;HPM_P1;HPM_P2
2023/09/17 00:00:41;;;;;;;44.45;39.63;;;15.60;99.90;;;;;;4958163;28;93567;-33
2023/09/17 00:03:07;;;;;;;46.08;41.13;;;15.60;99.90;;;;;;4957230;28;94863;-33
2023/09/17 00:05:34;;;;;;;45.17;40.00;;;15.60;99.90;;;;;;4957680;28;94434;-36
2023/09/17 00:08:00;;;;;;;47.38;39.95;;;15.60;99.90;;;;;;4958196;28;94248;-34
2023/09/17 00:10:25;;;;;;;44.28;38.75;;;15.60;99.90;;;;;;4958512;28;94196;-32
2023/09/17 00:12:55;;;;;;;49.70;38.65;;;15.50;99.90;;;;;;4958056;28;94231;-36
2023/09/17 00:15:21;;;;;;;45.28;38.72;;;15.60;99.90;;;;;;4958751;28;93884;-34
2023/09/17 00:17:47;;;;;;;46.95;41.80;;;15.50;99.90;;;;;;4958012;28;92893;-35
2023/09/17 00:20:13;;;;;;;42.15;37.53;;;15.60;99.90;;;;;;4957904;28;93440;-37
2023/09/17 00:22:39;;;;;;;43.28;38.28;;;15.60;99.90;;;;;;4957078;28;96061;-37
2023/09/17 00:25:05;;;;;;;44.40;38.38;;;15.50;99.90;;;;;;4957693;28;97401;-34
2023/09/17 00:27:32;;;;;;;43.55;38.95;;;15.40;99.90;;;;;;4957686;28;92929;-39
2023/09/17 00:29:57;;;;;;;48.92;38.45;;;15.40;99.90;;;;;;4948170;28;93076;-36
2023/09/17 00:32:23;;;;;;;45.90;39.70;;;15.40;99.90;;;;;;4944399;28;95382;-36
2023/09/17 00:34:49;;;;;;;43.20;38.58;;;15.40;99.90;;;;;;4944589;28;93286;-34
2023/09/17 00:37:14;;;;;;;43.40;38.75;;;15.40;99.90;;;;;;4949163;28;93039;-34
2023/09/17 00:39:40;;;;;;;41.20;36.78;;;15.40;99.90;;;;;;4958584;28;93344;-36
2023/09/17 00:42:06;;;;;;;43.63;38.85;;;15.50;99.90;;;;;;4953048;28;94577;-38
2023/09/17 00:44:32;;;;;;;43.47;38.97;;;15.50;99.90;;;;;;4960505;28;94258;-37
2023/09/17 00:47:00;;;;;;;48.47;37.90;;;15.50;99.90;;;;;;4941975;28;94801;-38
2023/09/17 00:49:26;;;;;;;;;;;15.50;99.90;;;;;;4939494;28;92536;-35
2023/09/17 00:51:52;;;;;;;40.63;36.13;;;15.50;99.90;;;;;;4940036;28;95523;-39
2023/09/17 00:54:18;;;;;;;43.38;37.78;;;15.50;99.90;;;;;;4938143;28;94029;-37
2023/09/17 00:56:43;;;;;;;41.47;37.17;;;15.50;99.90;;;;;;4943617;28;93514;-37
2023/09/17 00:59:10;;;;;;;41.95;35.47;;;15.40;99.90;;;;;;4939694;28;94404;-35
2023/09/17 01:01:36;;;;;;;46.17;37.22;;;15.40;99.90;;;;;;4956907;28;94567;-35
2023/09/17 01:04:03;;;;;;;42.40;36.05;;;15.50;99.90;;;;;;4957644;28;94055;-36
2023/09/17 01:06:29;;;;;;;38.42;33.88;;;15.40;99.90;;;;;;4957839;28;92398;-40
2023/09/17 01:08:55;;;;;;;41.88;35.80;;;15.40;99.90;;;;;;4956507;28;94472;-37
2023/09/17 01:11:21;;;;;;;42.03;35.05;;;15.40;99.90;;;;;;4957225;28;95756;-39
2023/09/17 01:13:58;;;;;;;41.05;35.08;;;15.40;99.90;;;;;;4956961;28;95502;-38
2023/09/17 01:16:25;;;;;;;40.10;35.88;;;15.30;99.90;;;;;;4957101;28;94453;-35
2023/09/17 01:18:53;;;;;;;44.60;37.60;;;15.30;99.90;;;;;;4944510;28;92863;-38
2023/09/17 01:21:51;;;;;;;40.40;36.17;;;15.30;99.90;;;;;;4946035;28;92897;-35
2023/09/17 01:24:20;;;;;;;44.00;36.42;;;15.30;99.90;;;;;;4941548;28;93670;-33
2023/09/17 01:27:01;;;;;;;41.40;35.30;;;15.30;99.90;;;;;;4944440;28;95055;-35
2023/09/17 01:29:32;;;;;;;39.13;34.92;;;15.30;99.90;;;;;;4938462;28;92345;-35
2023/09/17 01:31:57;;;;;;;39.45;34.95;;;15.20;99.90;;;;;;4937668;28;94308;-34
2023/09/17 01:34:23;;;;;;;41.47;34.75;;;15.30;99.90;;;;;;4920708;28;94442;-34
2023/09/17 01:36:50;;;;;;;41.88;37.25;;;15.30;99.90;;;;;;4937605;28;94946;-41
2023/09/17 01:39:22;;;;;;;42.47;37.47;;;15.30;99.90;;;;;;4957486;28;94775;-34
2023/09/17 01:41:49;;;;;;;37.33;33.45;;;15.30;99.90;;;;;;4955818;28;94556;-37
2023/09/17 01:44:17;;;;;;;42.23;36.27;;;15.30;99.90;;;;;;4948330;28;94656;-34
2023/09/17 01:46:44;;;;;;;40.77;35.00;;;15.30;99.90;;;;;;4920266;28;94826;-35
2023/09/17 01:49:11;;;;;;;39.17;34.80;;;15.40;99.90;;;;;;4937621;28;93764;-32
2023/09/17 01:51:39;;;;;;;39.33;33.88;;;15.40;99.90;;;;;;4940815;28;94266;-34
2023/09/17 01:54:05;;;;;;;38.50;34.30;;;15.30;99.90;;;;;;4956853;28;94574;-36
2023/09/17 01:56:39;;;;;;;41.88;35.28;;;15.30;99.90;;;;;;4943737;28;92659;-37
2023/09/17 01:59:04;;;;;;;35.42;31.50;;;15.30;99.90;;;;;;4945742;28;92956;-37
2023/09/17 02:01:30;;;;;;;36.95;33.00;;;15.30;99.90;;;;;;4936649;28;95781;-36
2023/09/17 02:03:57;;;;;;;38.10;33.70;;;15.20;99.90;;;;;;4951108;28;95806;-34
2023/09/17 02:06:23;;;;;;;33.95;30.35;;;15.20;99.90;;;;;;4956510;28;93973;-33
2023/09/17 02:08:49;;;;;;;36.80;32.92;;;15.20;99.90;;;;;;4956627;28;93304;-38
2023/09/17 02:11:14;;;;;;;35.40;31.73;;;15.20;99.90;;;;;;4955535;28;95081;-36
2023/09/17 02:13:40;;;;;;;36.25;32.30;;;15.20;99.90;;;;;;4955923;28;95259;-34
2023/09/17 02:16:07;;;;;;;39.83;32.47;;;15.20;99.90;;;;;;4956377;28;92819;-33
2023/09/17 02:18:32;;;;;;;36.42;30.98;;;15.20;99.90;;;;;;4956847;28;91743;-32
2023/09/17 02:20:58;;;;;;;37.33;33.42;;;15.30;99.90;;;;;;4955830;28;95047;-36
2023/09/17 02:23:24;;;;;;;43.03;32.63;;;15.30;99.90;;;;;;4956239;28;94341;-33
2023/09/17 02:25:49;;;;;;;37.35;33.17;;;15.20;99.90;;;;;;4956052;28;94069;-39
2023/09/17 02:28:15;;;;;;;36.38;32.47;;;15.30;99.90;;;;;;4952738;28;94359;-35
2023/09/17 02:30:40;;;;;;;37.53;32.42;;;15.30;99.90;;;;;;4955900;28;94313;-37
2023/09/17 02:33:10;;;;;;;38.97;34.67;;;15.40;99.90;;;;;;4955312;28;94198;-38
2023/09/17 02:35:36;;;;;;;43.78;35.45;;;15.40;99.90;;;;;;4943445;28;94181;-35
2023/09/17 02:38:03;;;;;;;36.20;31.35;;;15.30;99.90;;;;;;4956548;28;94052;-33
2023/09/17 02:40:29;;;;;;;36.80;31.73;;;15.30;99.90;;;;;;4955848;28;94378;-34
2023/09/17 02:42:54;;;;;;;37.88;33.60;;;15.40;99.90;;;;;;4956160;28;94889;-38
2023/09/17 02:45:20;;;;;;;38.30;34.15;;;15.40;99.90;;;;;;4956268;28;93795;-34
2023/09/17 02:47:46;;;;;;;38.35;34.33;;;15.30;99.90;;;;;;4956611;28;93241;-34
2023/09/17 02:50:12;;;;;;;40.55;36.10;;;15.30;99.90;;;;;;4954612;28;95728;-35
2023/09/17 02:52:38;;;;;;;39.65;35.40;;;15.30;99.90;;;;;;4955621;28;95687;-34
2023/09/17 02:55:05;;;;;;;38.13;33.97;;;15.40;99.90;;;;;;4955670;28;93104;-38
2023/09/17 02:57:31;;;;;;;39.13;34.22;;;15.40;99.90;;;;;;4956261;28;93033;-37
2023/09/17 02:59:56;;;;;;;37.85;32.75;;;15.30;99.90;;;;;;4954441;28;94759;-39
2023/09/17 03:02:22;;;;;;;41.05;36.58;;;15.30;99.90;;;;;;4956152;28;94705;-34
2023/09/17 03:04:50;;;;;;;37.92;34.10;;;15.40;99.90;;;;;;4955504;28;94528;-38
2023/09/17 03:07:18;;;;;;;37.33;33.30;;;15.30;99.90;;;;;;4955775;28;92052;-33
2023/09/17 03:09:44;;;;;;;41.10;36.63;;;15.30;99.90;;;;;;4955661;28;94735;-35
2023/09/17 03:12:11;;;;;;;40.72;36.50;;;15.20;99.90;;;;;;4955402;28;94346;-39
2023/09/17 03:14:36;;;;;;;40.50;35.90;;;15.20;99.90;;;;;;4955579;28;93954;-35
2023/09/17 03:17:05;;;;;;;47.33;39.95;;;15.20;99.90;;;;;;4955866;28;94293;-36
2023/09/17 03:19:31;;;;;;;38.13;34.00;;;15.20;99.90;;;;;;4955569;28;94244;-35
2023/09/17 03:21:56;;;;;;;43.17;38.03;;;15.20;99.90;;;;;;4955156;28;94863;-35
2023/09/17 03:24:22;;;;;;;42.10;35.97;;;15.30;99.90;;;;;;4955538;28;92503;-34
2023/09/17 03:26:47;;;;;;;40.85;36.55;;;15.30;99.90;;;;;;4955393;28;94850;-35
2023/09/17 03:29:13;;;;;;;42.45;37.88;;;15.40;99.90;;;;;;4954953;28;96032;-34
2023/09/17 03:31:41;;;;;;;40.40;35.08;;;15.40;99.90;;;;;;4954270;28;94666;-33
2023/09/17 03:34:06;;;;;;;41.20;34.00;;;15.30;99.90;;;;;;4955324;28;92187;-36
2023/09/17 03:36:35;;;;;;;45.58;39.45;;;15.30;99.90;;;;;;4954056;28;94514;-36
2023/09/17 03:39:01;;;;;;;41.15;36.85;;;15.40;99.90;;;;;;4954754;28;95673;-36
2023/09/17 03:41:27;;;;;;;44.35;35.75;;;15.40;99.90;;;;;;4942772;28;95528;-37
2023/09/17 03:43:52;;;;;;;48.42;38.67;;;15.40;99.90;;;;;;4936017;28;93176;-35
2023/09/17 03:46:18;;;;;;;51.13;41.78;;;15.30;99.90;;;;;;4935782;28;93617;-36
2023/09/17 03:48:45;;;;;;;42.95;38.00;;;15.30;99.90;;;;;;4936292;28;95174;-34
2023/09/17 03:51:11;;;;;;;41.33;37.00;;;15.30;99.90;;;;;;4935299;28;94645;-35
2023/09/17 03:53:37;;;;;;;44.33;38.33;;;15.30;99.90;;;;;;4937142;28;92913;-34
2023/09/17 03:56:03;;;;;;;43.72;37.75;;;15.40;99.90;;;;;;4948206;28;93235;-36
2023/09/17 03:58:29;;;;;;;46.08;40.25;;;15.50;99.90;;;;;;4936939;28;94861;-37
2023/09/17 04:00:55;;;;;;;51.30;40.13;;;15.50;99.90;;;;;;4935594;28;94603;-37
2023/09/17 04:03:20;;;;;;;47.13;41.47;;;15.50;99.90;;;;;;4944885;28;95630;-35
2023/09/17 04:05:50;;;;;;;45.95;40.10;;;15.50;99.90;;;;;;4957234;28;95632;-35
2023/09/17 04:08:16;;;;;;;46.45;38.92;;;15.50;99.90;;;;;;4958110;28;94139;-38
2023/09/17 04:10:43;;;;;;;48.30;40.20;;;15.50;99.90;;;;;;4956933;28;94261;-34
2023/09/17 04:13:09;;;;;;;46.78;39.72;;;15.50;99.90;;;;;;4958051;28;92260;-37
2023/09/17 04:15:36;;;;;;;48.72;43.25;;;15.50;99.90;;;;;;4957243;28;92102;-35
2023/09/17 04:18:04;;;;;;;51.33;42.30;;;15.50;99.90;;;;;;4939758;28;94425;-37
2023/09/17 04:20:30;;;;;;;49.90;40.95;;;15.50;99.90;;;;;;4957118;28;94561;-36
2023/09/17 04:22:55;;;;;;;50.95;41.42;;;15.40;99.90;;;;;;4958671;28;93179;-33
2023/09/17 04:25:21;;;;;;;49.78;42.65;;;15.40;99.90;;;;;;4957993;28;94384;-35
2023/09/17 04:27:47;;;;;;;45.08;39.58;;;15.40;99.90;;;;;;4957054;28;95078;-34
2023/09/17 04:30:14;;;;;;;50.85;41.53;;;15.30;99.90;;;;;;4955761;28;94781;-34
2023/09/17 04:32:42;;;;;;;48.80;40.80;;;15.40;99.90;;;;;;4956911;28;93864;-33
2023/09/17 04:35:09;;;;;;;45.75;39.38;;;15.40;99.90;;;;;;4954983;28;93901;-35
2023/09/17 04:37:37;;;;;;;55.38;43.10;;;15.40;99.90;;;;;;4955713;28;94258;-34
2023/09/17 04:40:08;;;;;;;51.43;42.47;;;15.40;99.90;;;;;;4956725;28;94399;-36
2023/09/17 04:42:35;;;;;;;46.42;41.15;;;15.40;99.90;;;;;;4957764;28;94247;-35
2023/09/17 04:45:04;;;;;;;48.15;42.05;;;15.40;99.90;;;;;;4956025;28;92511;-37
2023/09/17 04:47:30;;;;;;;50.03;43.03;;;15.40;99.90;;;;;;4945070;28;94918;-32
2023/09/17 04:49:56;;;;;;;54.42;44.50;;;15.40;99.90;;;;;;4953015;28;93526;-36
2023/09/17 04:52:21;;;;;;;52.67;43.42;;;15.40;99.90;;;;;;4948711;28;95794;-36
2023/09/17 04:54:47;;;;;;;51.72;43.88;;;15.30;99.90;;;;;;4951092;28;94234;-36
2023/09/17 04:57:13;;;;;;;50.50;45.05;;;15.40;99.90;;;;;;4947136;28;96003;-36
2023/09/17 04:59:38;;;;;;;58.38;42.38;;;15.40;99.90;;;;;;4941907;28;94937;-34
2023/09/17 05:02:04;;;;;;;54.70;43.97;;;15.50;99.90;;;;;;4938197;28;92188;-36
2023/09/17 05:04:29;;;;;;;52.80;44.15;;;15.50;99.90;;;;;;4950402;28;94813;-37
2023/09/17 05:06:55;;;;;;;55.28;46.00;;;15.50;99.90;;;;;;4937531;28;94665;-33
2023/09/17 05:09:22;;;;;;;50.00;44.58;;;15.50;99.90;;;;;;4932677;28;96501;-32
2023/09/17 05:11:48;;;;;;;55.00;47.58;;;15.50;99.90;;;;;;4938096;28;94671;-33
2023/09/17 05:14:13;;;;;;;52.95;45.58;;;15.50;99.90;;;;;;4943588;28;93250;-38
2023/09/17 05:16:40;;;;;;;58.83;50.85;;;15.50;99.90;;;;;;4944217;28;94427;-36
2023/09/17 05:19:05;;;;;;;60.65;48.55;;;15.50;99.90;;;;;;4956905;28;94780;-37
2023/09/17 05:21:31;;;;;;;58.17;50.75;;;15.50;99.90;;;;;;4957306;28;94547;-34
2023/09/17 05:23:56;;;;;;;60.33;50.75;;;15.50;99.90;;;;;;4956871;28;92829;-34
2023/09/17 05:26:22;;;;;;;69.13;53.30;;;15.50;99.90;;;;;;4956065;28;95920;-34
2023/09/17 05:28:48;;;;;;;61.42;52.25;;;15.50;99.90;;;;;;4957147;28;96240;-34
2023/09/17 05:31:15;;;;;;;62.75;49.85;;;15.40;99.90;;;;;;4992643;22;93053;-34
2023/09/17 05:33:40;;;;;;;63.08;51.10;;;15.50;99.90;;;;;;4995471;28;92689;-37
2023/09/17 05:36:07;;;;;;;63.05;50.28;;;15.50;99.90;;;;;;4996352;28;95030;-37
2023/09/17 05:38:32;;;;;;;55.70;48.50;;;15.60;99.90;;;;;;4983812;28;95050;-33
2023/09/17 05:40:58;;;;;;;57.95;50.78;;;15.60;99.90;;;;;;4996675;28;94316;-37
2023/09/17 05:43:24;;;;;;;63.22;51.63;;;15.60;99.90;;;;;;4996077;28;94344;-35
2023/09/17 05:45:56;;;;;;;60.88;52.15;;;15.60;99.90;;;;;;4997042;28;94720;-33
2023/09/17 05:48:22;;;;;;;60.58;49.70;;;15.60;99.90;;;;;;4996225;28;94275;-40
2023/09/17 05:50:50;;;;;;;65.65;53.58;;;15.60;99.90;;;;;;4997220;28;94017;-33
2023/09/17 05:53:16;;;;;;;61.20;52.37;;;15.60;99.90;;;;;;4995733;28;93335;-35
2023/09/17 05:55:42;;;;;;;62.38;50.88;;;15.60;99.90;;;;;;4996604;28;94765;-37
2023/09/17 05:58:07;;;;;;;54.22;47.53;;;15.60;99.90;;;;;;4995488;28;93987;-35
2023/09/17 06:00:33;;;;;;;55.92;45.88;;;15.70;99.90;;;;;;4997173;28;92571;-34
2023/09/17 06:02:59;;;;;;;52.05;44.30;;;15.70;99.90;;;;;;4996017;28;93291;-34
2023/09/17 06:05:24;;;;;;;59.22;48.22;;;15.70;99.90;;;;;;4995712;28;96060;-35
2023/09/17 06:07:50;;;;;;;57.85;46.72;;;15.70;99.90;;;;;;4995720;28;95258;-35
2023/09/17 06:10:16;;;;;;;53.55;47.72;;;15.80;99.90;;;;;;4995489;28;94474;-33
2023/09/17 06:12:42;;;;;;;55.03;46.47;;;15.90;99.90;;;;;;4996354;28;93011;-36
2023/09/17 06:15:08;;;;;;;59.25;48.53;;;16.00;99.90;;;;;;4995565;28;95676;-36
2023/09/17 06:17:33;;;;;;;53.28;44.53;;;16.00;99.90;;;;;;4996331;28;94749;-37
2023/09/17 06:19:59;;;;;;;51.20;44.83;;;16.10;99.90;;;;;;4995033;28;94508;-33
2023/09/17 06:22:25;;;;;;;52.10;46.33;;;16.10;99.90;;;;;;4996766;28;91310;-36
2023/09/17 06:24:51;;;;;;;57.92;47.03;;;16.10;99.90;;;;;;4995472;28;94483;-34
2023/09/17 06:27:17;;;;;;;52.33;44.08;;;16.20;99.90;;;;;;4977174;28;94262;-35
2023/09/17 06:29:42;;;;;;;49.72;44.28;;;16.20;99.90;;;;;;4995657;28;95698;-36
2023/09/17 06:32:08;;;;;;;49.78;44.17;;;16.20;99.90;;;;;;4995981;28;94838;-35
2023/09/17 06:34:35;;;;;;;50.05;44.55;;;16.20;99.90;;;;;;4991785;28;93923;-34
2023/09/17 06:37:01;;;;;;;57.50;46.17;;;16.20;99.90;;;;;;4990009;28;94581;-33
2023/09/17 06:39:27;;;;;;;51.63;44.58;;;16.20;99.90;;;;;;4991468;28;94493;-35
2023/09/17 06:41:53;;;;;;;59.35;47.03;;;16.20;99.90;;;;;;4992842;28;92151;-37
2023/09/17 06:44:18;;;;;;;51.40;43.50;;;16.20;99.90;;;;;;4992791;28;94530;-34
2023/09/17 06:46:44;;;;;;;54.15;43.75;;;16.20;99.90;;;;;;4993509;28;94489;-33
2023/09/17 06:49:10;;;;;;;50.10;43.78;;;16.20;99.90;;;;;;4992245;28;94336;-34
2023/09/17 06:51:36;;;;;;;55.40;45.55;;;16.20;99.90;;;;;;4993963;28;94272;-35
2023/09/17 06:54:03;;;;;;;49.70;44.40;;;16.20;99.90;;;;;;4991877;28;96453;-38
2023/09/17 06:56:29;;;;;;;49.50;43.78;;;16.20;99.90;;;;;;4992559;28;94600;-34
2023/09/17 06:58:55;;;;;;;49.75;44.28;;;16.30;99.90;;;;;;4992947;28;94814;-34
2023/09/17 07:01:21;;;;;;;52.85;45.17;;;16.30;99.90;;;;;;4992649;28;92095;-37
2023/09/17 07:03:47;;;;;;;48.97;42.63;;;16.30;99.90;;;;;;4992930;28;94696;-37
2023/09/17 07:06:13;;;;;;;51.15;43.58;;;16.30;99.90;;;;;;4991843;28;94662;-37
2023/09/17 07:08:38;;;;;;;55.90;44.55;;;16.30;99.90;;;;;;4993612;28;94749;-34
2023/09/17 07:11:04;;;;;;;53.00;46.70;;;16.30;99.90;;;;;;4992927;28;92426;-34
2023/09/17 07:13:31;;;;;;;56.80;43.25;;;16.30;99.90;;;;;;4988727;28;95205;-35
2023/09/17 07:15:57;;;;;;;50.70;45.10;;;16.40;99.90;;;;;;4991575;28;95917;-33
2023/09/17 07:18:23;;;;;;;50.35;42.40;;;16.40;99.90;;;;;;4993271;28;94985;-35
2023/09/17 07:20:51;;;;;;;50.40;41.97;;;16.50;99.90;;;;;;4991927;28;93068;-36
2023/09/17 07:23:17;;;;;;;48.58;43.30;;;16.50;99.90;;;;;;4992901;28;94475;-37
2023/09/17 07:25:44;;;;;;;56.03;43.63;;;16.60;99.90;;;;;;4992459;28;94763;-34
2023/09/17 07:28:10;;;;;;;58.30;46.23;;;16.70;99.90;;;;;;4992245;28;93393;-33
2023/09/17 07:30:36;;;;;;;52.63;42.72;;;16.80;99.90;;;;;;4975345;28;94445;-36
2023/09/17 07:33:06;;;;;;;53.30;44.55;;;16.90;99.90;;;;;;4992345;28;95407;-34
2023/09/17 07:35:32;;;;;;;53.38;45.45;;;16.90;99.90;;;;;;4974175;28;94944;-34
2023/09/17 07:37:59;;;;;;;49.38;42.17;;;16.90;99.90;;;;;;4990182;28;94797;-34
2023/09/17 07:40:25;;;;;;;48.38;42.80;;;16.90;99.90;;;;;;4993238;28;92527;-38
2023/09/17 07:42:50;;;;;;;51.47;45.33;;;17.00;99.90;;;;;;4995378;28;95744;-35
2023/09/17 07:45:20;;;;;;;53.67;46.38;;;;;;;;;;4994756;28;95118;-35
2023/09/17 07:47:48;;;;;;;51.38;44.30;;;;;;;;;;4988663;28;92128;-35
2023/09/17 07:50:15;;;;;;;50.75;44.85;;;;;;;;;;4995262;28;93089;-32
2023/09/17 07:52:42;;;;;;;49.45;44.05;;;;;;;;;;4988953;28;95228;-33
2023/09/17 07:55:08;;;;;;;53.47;47.72;;;17.50;99.90;;;;;;4996460;28;94688;-36
2023/09/17 07:57:34;;;;;;;54.22;46.70;;;17.50;99.90;;;;;;4995718;28;93428;-34
2023/09/17 08:00:00;;;;;;;57.25;50.22;;;17.60;99.90;;;;;;4994701;28;93612;-36
2023/09/17 08:02:25;;;;;;;52.83;43.85;;;17.60;99.90;;;;;;4988202;28;94805;-35
2023/09/17 08:04:51;;;;;;;57.55;47.78;;;17.70;99.90;;;;;;4994517;28;94155;-35
2023/09/17 08:07:17;;;;;;;52.17;44.65;;;17.70;99.90;;;;;;4995818;28;93841;-37
2023/09/17 08:09:43;;;;;;;51.92;45.75;;;17.70;99.90;;;;;;4995691;28;93343;-33
2023/09/17 08:12:10;;;;;;;53.92;47.78;;;17.70;99.90;;;;;;4995040;28;94648;-35
2023/09/17 08:14:36;;;;;;;51.95;46.35;;;17.70;99.90;;;;;;4995710;28;94322;-33
2023/09/17 08:17:04;;;;;;;54.50;48.72;;;17.80;99.90;;;;;;4995374;28;93562;-36
2023/09/17 08:19:30;;;;;;;55.30;46.47;;;17.80;99.90;;;;;;4994496;28;92289;-36
2023/09/17 08:21:56;;;;;;;52.60;46.92;;;17.80;99.90;;;;;;4994896;28;94743;-36
2023/09/17 08:24:23;;;;;;;56.03;44.65;;;17.80;99.90;;;;;;4977338;28;95831;-34
2023/09/17 08:26:52;;;;;;;48.70;40.07;;;17.90;99.90;;;;;;4995404;28;93264;-37
2023/09/17 08:29:20;;;;;;;;;;;17.90;99.90;;;;;;4995802;28;93205;-36
2023/09/17 08:31:46;;;;;;;49.38;44.10;;;18.00;99.90;;;;;;4996425;28;94231;-33
2023/09/17 08:34:12;;;;;;;45.00;39.33;;;18.10;99.90;;;;;;4994268;28;95597;-36
2023/09/17 08:36:38;;;;;;;49.95;44.67;;;18.10;99.90;;;;;;4995421;28;93096;-38
2023/09/17 08:39:06;;;;;;;54.35;42.28;;;18.10;99.90;;;;;;4995152;28;92586;-37
2023/09/17 08:41:34;;;;;;;48.70;41.95;;;18.20;99.90;;;;;;4993698;28;94614;-34
2023/09/17 08:44:04;;;;;;;48.08;42.67;;;18.20;99.90;;;;;;4995279;28;94643;-35
2023/09/17 08:46:31;;;;;;;50.40;41.97;;;18.20;99.90;;;;;;4995542;28;92487;-36
2023/09/17 08:48:58;;;;;;;50.23;42.70;;;18.30;99.90;;;;;;4994402;28;92313;-37
2023/09/17 08:51:25;;;;;;;44.13;38.40;;;18.30;99.90;;;;;;4993762;28;94231;-35
2023/09/17 08:54:05;;;;;;;45.22;38.70;;;;;;;;;;4995049;28;94744;-33
2023/09/17 08:56:32;;;;;;;45.78;40.65;;;18.40;99.90;;;;;;4994442;28;95356;-34
2023/09/17 08:59:03;;;;;;;43.22;38.35;;;18.40;99.90;;;;;;4993314;28;93924;-34
2023/09/17 09:01:31;;;;;;;38.97;33.67;;;18.40;99.90;;;;;;4993549;28;95194;-35
2023/09/17 09:03:56;;;;;;;43.85;37.80;;;18.50;99.90;;;;;;4994143;28;94960;-33
2023/09/17 09:06:24;;;;;;;39.15;34.95;;;18.50;99.90;;;;;;4994399;28;95230;-35
2023/09/17 09:08:52;;;;;;;38.67;34.50;;;18.50;99.90;;;;;;4994963;28;93605;-33
2023/09/17 09:11:18;;;;;;;40.50;36.05;;;18.50;99.90;;;;;;4992026;28;95281;-35
2023/09/17 09:13:46;;;;;;;42.47;37.90;;;18.60;99.90;;;;;;4994770;28;94223;-37
2023/09/17 09:16:12;;;;;;;42.55;37.97;;;18.60;99.90;;;;;;4991578;28;93974;-32
2023/09/17 09:18:38;;;;;;;40.38;36.15;;;18.60;99.90;;;;;;4994117;28;93212;-36
2023/09/17 09:21:04;;;;;;;42.20;37.67;;;18.60;99.90;;;;;;4993073;28;95856;-34
2023/09/17 09:23:29;;;;;;;39.90;35.78;;;18.60;99.90;;;;;;4975053;28;96430;-38
2023/09/17 09:25:55;;;;;;;40.28;35.72;;;18.60;99.90;;;;;;4985563;28;93358;-35
2023/09/17 09:28:21;;;;;;;42.78;37.75;;;18.60;99.90;;;;;;4994565;28;93341;-35
2023/09/17 09:30:46;;;;;;;47.50;39.47;;;18.60;99.90;;;;;;4994594;28;94919;-33
2023/09/17 09:33:13;;;;;;;43.70;38.78;;;18.60;99.90;;;;;;4988867;28;94490;-34
2023/09/17 09:35:39;;;;;;;41.08;36.53;;;18.60;99.90;;;;;;4993919;28;93437;-36
2023/09/17 09:38:05;;;;;;;45.83;37.85;;;18.50;99.90;;;;;;4995072;28;91515;-36
2023/09/17 09:40:34;;;;;;;41.63;37.13;;;18.50;99.90;;;;;;4993530;28;94215;-37
2023/09/17 09:43:02;;;;;;;42.10;37.60;;;18.40;99.90;;;;;;4993562;28;94451;-33
2023/09/17 09:45:28;;;;;;;40.03;35.97;;;18.40;99.90;;;;;;4994098;28;95870;-33
2023/09/17 09:47:54;;;;;;;40.15;34.88;;;18.40;99.90;;;;;;4993685;28;93465;-36
2023/09/17 09:50:31;;;;;;;40.00;35.17;;;18.40;99.90;;;;;;4994182;28;93289;-34
2023/09/17 09:52:56;;;;;;;43.28;38.67;;;18.40;99.90;;;;;;4993867;28;92771;-36
2023/09/17 09:55:27;;;;;;;43.55;38.83;;;18.40;99.90;;;;;;4993079;28;94123;-38
2023/09/17 09:57:53;;;;;;;41.20;36.97;;;18.60;99.90;;;;;;4994293;28;94002;-34
2023/09/17 10:00:26;;;;;;;44.00;36.47;;;18.60;99.90;;;;;;4993950;28;95291;-34
2023/09/17 10:02:52;;;;;;;41.05;35.85;;;18.60;99.90;;;;;;4992420;28;95178;-38
2023/09/17 10:05:34;;;;;;;43.25;38.75;;;18.70;99.90;;;;;;4993728;28;92709;-34
2023/09/17 10:08:04;;;;;;;42.17;37.72;;;18.70;99.90;;;;;;4994451;28;93784;-35
2023/09/17 10:10:33;;;;;;;38.03;34.05;;;;;;;;;;4991987;28;95643;-36
2023/09/17 10:13:00;;;;;;;38.53;34.38;;;;;;;;;;4994327;28;94798;-34
2023/09/17 10:15:26;;;;;;;33.97;30.38;;;;;;;;;;4994086;28;94692;-35
2023/09/17 10:17:53;;;;;;;37.13;32.83;;;;;;;;;;4992585;28;93029;-34
2023/09/17 10:20:22;;;;;;;37.45;32.05;;;;;;;;;;4994037;28;95199;-37
2023/09/17 10:22:49;;;;;;;33.88;30.27;;;;;;;;;;4994035;28;94937;-34
2023/09/17 10:25:17;;;;;;;37.72;33.55;;;;;;;;;;4992591;28;92625;-38
2023/09/17 10:27:44;;;;;;;36.35;32.53;;;;;;;;;;4995342;28;93175;-35
2023/09/17 10:30:11;;;;;;;35.43;31.60;;;;;;;;;;4975296;28;94599;-36
2023/09/17 10:32:37;;;;;;;36.70;32.55;;;;;;;;;;4993084;28;94508;-38
2023/09/17 10:35:05;;;;;;;33.42;29.90;;;;;;;;;;4993279;28;94787;-35
2023/09/17 10:37:32;;;;;;;33.53;30.10;;;;;;;;;;4993946;28;94489;-34
2023/09/17 10:39:58;;;;;;;35.23;31.83;;;;;;;;;;4993070;28;94601;-36
2023/09/17 10:42:26;;;;;;;34.53;30.70;;;;;;;;;;4993677;28;94258;-34
2023/09/17 10:44:56;;;;;;;33.47;30.08;;;;;;;;;;4993850;28;94374;-35
2023/09/17 10:47:24;;;;;;;32.65;29.27;;;;;;;;;;4993495;28;94155;-38
2023/09/17 10:49:51;;;;;;;33.75;30.15;;;;;;;;;;4994236;28;94468;-33
2023/09/17 10:52:17;;;;;;;35.15;31.42;;;;;;;;;;4992992;28;95206;-38
2023/09/17 10:54:44;;;;;;;36.15;30.92;;;;;;;;;;4993066;28;93125;-35
2023/09/17 10:57:18;;;;;;;32.92;29.40;;;;;;;;;;4993338;28;94622;-34
2023/09/17 10:59:45;;;;;;;33.00;29.30;;;;;;;;;;4993497;28;93998;-35
2023/09/17 11:02:11;;;;;;;38.38;31.45;;;;;;;;;;4992088;28;94914;-38
2023/09/17 11:04:37;;;;;;;35.70;31.52;;;;;;;;;;4994105;28;93416;-35
2023/09/17 11:07:06;;;;;;;34.58;31.02;;;;;;;;;;4974700;28;92898;-33
2023/09/17 11:09:33;;;;;;;37.90;32.72;;;;;;;;;;4979959;28;95063;-37
2023/09/17 11:11:59;;;;;;;36.15;32.38;;;;;;;;;;4992723;28;94557;-36
2023/09/17 11:14:25;;;;;;;38.67;34.58;;;;;;;;;;4993271;28;93598;-34
2023/09/17 11:16:51;;;;;;;37.63;33.70;;;;;;;;;;4992294;28;92355;-34
2023/09/17 11:19:21;;;;;;;38.35;34.15;;;;;;;;;;4993317;28;94887;-38
2023/09/17 11:21:49;;;;;;;37.70;33.80;;;;;;;;;;4992800;28;95117;-36
2023/09/17 11:24:17;;;;;;;43.60;36.20;;;;;;;;;;4992378;28;95494;-32
2023/09/17 11:26:47;;;;;;;37.10;33.08;;;20.50;99.90;;;;;;4992699;28;94004;-35
2023/09/17 11:29:14;;;;;;;38.25;32.55;;;20.40;99.90;;;;;;4991964;28;94664;-35
2023/09/17 11:31:52;;;;;;;34.80;31.02;;;20.40;99.90;;;;;;4991170;28;95088;-33
2023/09/17 11:34:18;;;;;;;36.67;32.00;;;20.30;99.90;;;;;;4984592;28;93014;-38
2023/09/17 11:36:47;;;;;;;44.03;33.35;;;20.40;99.90;;;;;;4992297;28;93182;-34
2023/09/17 11:39:20;;;;;;;36.75;32.80;;;20.40;99.90;;;;;;4992267;28;95437;-34
2023/09/17 11:41:48;;;;;;;36.33;32.55;;;20.60;99.90;;;;;;4992574;28;95046;-35
2023/09/17 11:44:15;;;;;;;35.20;31.42;;;20.70;99.90;;;;;;4974744;28;93237;-35
2023/09/17 11:46:42;;;;;;;36.35;32.50;;;20.70;99.90;;;;;;4991940;28;93112;-34
2023/09/17 11:49:08;;;;;;;34.38;30.77;;;20.80;99.90;;;;;;4991155;28;95516;-35
2023/09/17 11:51:34;;;;;;;35.70;30.80;;;20.80;99.90;;;;;;4992743;28;96564;-34
2023/09/17 11:54:06;;;;;;;36.13;32.13;;;20.90;99.90;;;;;;4974190;28;93467;-38
2023/09/17 11:56:33;;;;;;;36.05;30.77;;;21.00;99.90;;;;;;4992469;28;94161;-37
2023/09/17 11:59:08;;;;;;;34.10;30.52;;;21.10;99.90;;;;;;4992691;28;95103;-34
2023/09/17 12:01:52;;;;;;;35.70;31.92;;;21.10;99.90;;;;;;4990525;28;94580;-34
2023/09/17 12:04:19;;;;;;;35.13;30.42;;;21.10;99.90;;;;;;4992196;28;92124;-37
2023/09/17 12:06:47;;;;;;;35.80;29.83;;;21.00;99.90;;;;;;4992399;28;92300;-33
2023/09/17 12:09:23;;;;;;;28.88;25.88;;;21.10;99.90;;;;;;4991456;28;95480;-37
2023/09/17 12:11:50;;;;;;;30.17;26.58;;;21.10;99.90;;;;;;4991549;28;94712;-34
2023/09/17 12:14:16;;;;;;;31.67;28.35;;;21.20;99.90;;;;;;4988270;28;95682;-33
2023/09/17 12:16:42;;;;;;;31.02;27.88;;;21.20;99.90;;;;;;4991534;28;93141;-37
2023/09/17 12:19:08;;;;;;;30.40;27.15;;;21.20;99.90;;;;;;4992023;28;94035;-36
2023/09/17 12:21:40;;;;;;;31.88;28.50;;;21.30;99.90;;;;;;4992207;28;95107;-33
2023/09/17 12:24:08;;;;;;;33.08;29.48;;;21.30;99.90;;;;;;4991558;28;93127;-37
2023/09/17 12:26:52;;;;;;;32.75;29.25;;;21.30;99.90;;;;;;4993751;28;94735;-36
2023/09/17 12:29:18;;;;;;;36.92;29.13;;;21.40;99.90;;;;;;4995203;28;94860;-37
2023/09/17 12:31:44;;;;;;;32.75;29.27;;;21.50;99.90;;;;;;4994194;28;94621;-37
2023/09/17 12:34:10;;;;;;;32.15;28.80;;;21.40;99.90;;;;;;4995269;28;93009;-35
2023/09/17 12:36:36;;;;;;;38.38;29.90;;;21.50;99.90;;;;;;4995541;28;93961;-35